sensor_id;sensor_type;location;lat;lon;timestamp;P1;durP1;ratioP1;P2;durP2;ratioP2
11504;SDS011;5809;53.262;10.408;2023-04-15T00:00:40;15.63;;;12.43;;
11504;SDS011;5809;53.262;10.408;2023-04-15T00:03:08;15.57;;;12.73;;
11504;SDS011;5809;53.262;10.408;2023-04-15T00:05:35;16.53;;;12.97;;
11504;SDS011;5809;53.262;10.408;2023-04-15T00:08:04;14.60;;;12.30;;
11504;SDS011;5809;53.262;10.408;2023-04-15T00:10:31;14.40;;;11.37;;
11504;SDS011;5809;53.262;10.408;2023-04-15T00:12:58;14.97;;;12.13;;
11504;SDS011;5809;53.262;10.408;2023-04-15T00:15:26;14.13;;;10.27;;
11504;SDS011;5809;53.262;10.408;2023-04-15T00:17:53;12.83;;;9.93;;
11504;SDS011;5809;53.262;10.408;2023-04-15T00:20:20;11.33;;;9.30;;
11504;SDS011;5809;53.262;10.408;2023-04-15T00:22:48;11.40;;;10.20;;
11504;SDS011;5809;53.262;10.408;2023-04-15T00:25:17;10.33;;;9.23;;
11504;SDS011;5809;53.262;10.408;2023-04-15T00:27:44;9.90;;;8.90;;
11504;SDS011;5809;53.262;10.408;2023-04-15T00:30:11;12.47;;;9.70;;
11504;SDS011;5809;53.262;10.408;2023-04-15T00:35:07;12.40;;;8.97;;
11504;SDS011;5809;53.262;10.408;2023-04-15T00:37:34;9.97;;;8.63;;
11504;SDS011;5809;53.262;10.408;2023-04-15T00:40:02;10.90;;;8.17;;
11504;SDS011;5809;53.262;10.408;2023-04-15T00:42:31;10.93;;;8.23;;
11504;SDS011;5809;53.262;10.408;2023-04-15T00:44:59;10.73;;;8.63;;
11504;SDS011;5809;53.262;10.408;2023-04-15T00:47:26;10.00;;;8.17;;
11504;SDS011;5809;53.262;10.408;2023-04-15T00:49:55;11.67;;;8.80;;
11504;SDS011;5809;53.262;10.408;2023-04-15T00:52:22;13.00;;;9.23;;
11504;SDS011;5809;53.262;10.408;2023-04-15T00:54:49;10.27;;;8.37;;
11504;SDS011;5809;53.262;10.408;2023-04-15T00:57:17;12.07;;;9.40;;
11504;SDS011;5809;53.262;10.408;2023-04-15T00:59:47;11.63;;;8.70;;
11504;SDS011;5809;53.262;10.408;2023-04-15T01:02:15;10.93;;;9.17;;
11504;SDS011;5809;53.262;10.408;2023-04-15T01:04:42;12.97;;;9.73;;
11504;SDS011;5809;53.262;10.408;2023-04-15T01:07:09;12.33;;;9.63;;
11504;SDS011;5809;53.262;10.408;2023-04-15T01:09:36;16.70;;;10.47;;
11504;SDS011;5809;53.262;10.408;2023-04-15T01:12:04;11.23;;;9.73;;
11504;SDS011;5809;53.262;10.408;2023-04-15T01:14:32;12.77;;;9.40;;
11504;SDS011;5809;53.262;10.408;2023-04-15T01:17:01;10.67;;;8.87;;
11504;SDS011;5809;53.262;10.408;2023-04-15T01:19:28;10.30;;;8.77;;
11504;SDS011;5809;53.262;10.408;2023-04-15T01:21:55;11.47;;;9.50;;
11504;SDS011;5809;53.262;10.408;2023-04-15T01:24:22;11.20;;;9.53;;
11504;SDS011;5809;53.262;10.408;2023-04-15T01:26:52;12.57;;;9.40;;
11504;SDS011;5809;53.262;10.408;2023-04-15T01:29:19;14.80;;;9.87;;
11504;SDS011;5809;53.262;10.408;2023-04-15T01:31:50;11.03;;;9.13;;
11504;SDS011;5809;53.262;10.408;2023-04-15T01:34:17;12.90;;;10.00;;
11504;SDS011;5809;53.262;10.408;2023-04-15T01:36:45;11.40;;;9.37;;
11504;SDS011;5809;53.262;10.408;2023-04-15T01:39:12;11.60;;;9.83;;
11504;SDS011;5809;53.262;10.408;2023-04-15T01:41:39;10.57;;;9.23;;
11504;SDS011;5809;53.262;10.408;2023-04-15T01:44:08;11.53;;;9.67;;
11504;SDS011;5809;53.262;10.408;2023-04-15T01:46:35;10.90;;;9.03;;
11504;SDS011;5809;53.262;10.408;2023-04-15T01:49:02;11.47;;;9.20;;
11504;SDS011;5809;53.262;10.408;2023-04-15T01:51:29;11.83;;;9.40;;
11504;SDS011;5809;53.262;10.408;2023-04-15T01:53:56;12.03;;;9.60;;
11504;SDS011;5809;53.262;10.408;2023-04-15T01:56:22;11.63;;;9.17;;
11504;SDS011;5809;53.262;10.408;2023-04-15T01:58:50;12.30;;;9.80;;
11504;SDS011;5809;53.262;10.408;2023-04-15T02:01:19;14.27;;;10.37;;
11504;SDS011;5809;53.262;10.408;2023-04-15T02:03:46;12.03;;;9.37;;
11504;SDS011;5809;53.262;10.408;2023-04-15T02:06:13;12.83;;;10.17;;
11504;SDS011;5809;53.262;10.408;2023-04-15T02:08:40;15.30;;;10.90;;
11504;SDS011;5809;53.262;10.408;2023-04-15T02:11:07;12.97;;;9.87;;
11504;SDS011;5809;53.262;10.408;2023-04-15T02:13:34;12.37;;;9.57;;
11504;SDS011;5809;53.262;10.408;2023-04-15T02:16:01;10.00;;;8.87;;
11504;SDS011;5809;53.262;10.408;2023-04-15T02:18:30;12.17;;;9.60;;
11504;SDS011;5809;53.262;10.408;2023-04-15T02:20:56;12.93;;;10.03;;
11504;SDS011;5809;53.262;10.408;2023-04-15T02:23:23;14.10;;;9.80;;
11504;SDS011;5809;53.262;10.408;2023-04-15T02:25:50;12.73;;;9.90;;
11504;SDS011;5809;53.262;10.408;2023-04-15T02:28:18;12.57;;;10.13;;
11504;SDS011;5809;53.262;10.408;2023-04-15T02:30:46;12.90;;;10.63;;
11504;SDS011;5809;53.262;10.408;2023-04-15T02:33:14;13.03;;;10.43;;
11504;SDS011;5809;53.262;10.408;2023-04-15T02:35:43;14.00;;;10.73;;
11504;SDS011;5809;53.262;10.408;2023-04-15T02:38:10;13.27;;;10.63;;
11504;SDS011;5809;53.262;10.408;2023-04-15T02:40:38;12.83;;;10.40;;
11504;SDS011;5809;53.262;10.408;2023-04-15T02:43:05;13.20;;;10.53;;
11504;SDS011;5809;53.262;10.408;2023-04-15T02:45:32;13.63;;;10.20;;
11504;SDS011;5809;53.262;10.408;2023-04-15T02:47:59;13.00;;;10.37;;
11504;SDS011;5809;53.262;10.408;2023-04-15T02:50:30;13.67;;;11.17;;
11504;SDS011;5809;53.262;10.408;2023-04-15T02:52:58;13.53;;;10.93;;
11504;SDS011;5809;53.262;10.408;2023-04-15T02:55:26;19.00;;;12.00;;
11504;SDS011;5809;53.262;10.408;2023-04-15T02:57:53;14.80;;;11.13;;
11504;SDS011;5809;53.262;10.408;2023-04-15T03:00:21;16.50;;;12.57;;
11504;SDS011;5809;53.262;10.408;2023-04-15T03:02:49;14.97;;;11.47;;
11504;SDS011;5809;53.262;10.408;2023-04-15T03:05:20;15.87;;;12.37;;
11504;SDS011;5809;53.262;10.408;2023-04-15T03:07:48;16.03;;;12.40;;
11504;SDS011;5809;53.262;10.408;2023-04-15T03:10:16;16.80;;;11.77;;
11504;SDS011;5809;53.262;10.408;2023-04-15T03:12:44;17.63;;;13.03;;
11504;SDS011;5809;53.262;10.408;2023-04-15T03:15:11;19.50;;;13.03;;
11504;SDS011;5809;53.262;10.408;2023-04-15T03:17:37;21.27;;;13.93;;
11504;SDS011;5809;53.262;10.408;2023-04-15T03:20:05;20.93;;;14.07;;
11504;SDS011;5809;53.262;10.408;2023-04-15T03:22:33;19.53;;;13.73;;
11504;SDS011;5809;53.262;10.408;2023-04-15T03:25:00;23.93;;;14.70;;
11504;SDS011;5809;53.262;10.408;2023-04-15T03:27:28;21.40;;;14.27;;
11504;SDS011;5809;53.262;10.408;2023-04-15T03:29:56;24.40;;;15.30;;
11504;SDS011;5809;53.262;10.408;2023-04-15T03:32:23;23.53;;;15.87;;
11504;SDS011;5809;53.262;10.408;2023-04-15T03:34:51;23.37;;;15.60;;
11504;SDS011;5809;53.262;10.408;2023-04-15T03:37:18;23.37;;;16.00;;
11504;SDS011;5809;53.262;10.408;2023-04-15T03:39:45;24.80;;;17.20;;
11504;SDS011;5809;53.262;10.408;2023-04-15T03:42:12;24.53;;;15.97;;
11504;SDS011;5809;53.262;10.408;2023-04-15T03:44:40;29.37;;;17.67;;
11504;SDS011;5809;53.262;10.408;2023-04-15T03:47:07;27.13;;;17.63;;
11504;SDS011;5809;53.262;10.408;2023-04-15T03:49:34;27.93;;;17.83;;
11504;SDS011;5809;53.262;10.408;2023-04-15T03:52:01;29.90;;;18.67;;
11504;SDS011;5809;53.262;10.408;2023-04-15T03:54:28;31.63;;;18.87;;
11504;SDS011;5809;53.262;10.408;2023-04-15T03:56:55;30.27;;;19.00;;
11504;SDS011;5809;53.262;10.408;2023-04-15T03:59:22;32.10;;;19.03;;
11504;SDS011;5809;53.262;10.408;2023-04-15T04:01:50;30.20;;;18.80;;
11504;SDS011;5809;53.262;10.408;2023-04-15T04:04:17;32.20;;;18.53;;
11504;SDS011;5809;53.262;10.408;2023-04-15T04:06:44;32.47;;;19.30;;
11504;SDS011;5809;53.262;10.408;2023-04-15T04:09:11;36.23;;;20.77;;
11504;SDS011;5809;53.262;10.408;2023-04-15T04:11:38;36.17;;;19.60;;
11504;SDS011;5809;53.262;10.408;2023-04-15T04:14:05;36.87;;;20.53;;
11504;SDS011;5809;53.262;10.408;2023-04-15T04:16:32;35.50;;;21.20;;
11504;SDS011;5809;53.262;10.408;2023-04-15T04:19:00;38.00;;;20.47;;
11504;SDS011;5809;53.262;10.408;2023-04-15T04:21:27;35.93;;;20.50;;
11504;SDS011;5809;53.262;10.408;2023-04-15T04:23:54;34.57;;;19.90;;
11504;SDS011;5809;53.262;10.408;2023-04-15T04:26:23;38.20;;;21.37;;
11504;SDS011;5809;53.262;10.408;2023-04-15T04:28:50;34.00;;;19.57;;
11504;SDS011;5809;53.262;10.408;2023-04-15T04:31:17;34.17;;;20.07;;
11504;SDS011;5809;53.262;10.408;2023-04-15T04:33:44;35.97;;;20.13;;
11504;SDS011;5809;53.262;10.408;2023-04-15T04:36:12;34.63;;;20.63;;
11504;SDS011;5809;53.262;10.408;2023-04-15T04:38:39;31.67;;;18.57;;
11504;SDS011;5809;53.262;10.408;2023-04-15T04:41:06;33.97;;;20.07;;
11504;SDS011;5809;53.262;10.408;2023-04-15T04:43:33;34.63;;;20.83;;
11504;SDS011;5809;53.262;10.408;2023-04-15T04:46:00;34.17;;;19.53;;
11504;SDS011;5809;53.262;10.408;2023-04-15T04:48:27;35.67;;;20.20;;
11504;SDS011;5809;53.262;10.408;2023-04-15T04:50:54;38.13;;;21.10;;
11504;SDS011;5809;53.262;10.408;2023-04-15T04:53:22;37.27;;;20.47;;
11504;SDS011;5809;53.262;10.408;2023-04-15T04:55:49;38.97;;;20.47;;
11504;SDS011;5809;53.262;10.408;2023-04-15T04:58:16;35.20;;;20.43;;
11504;SDS011;5809;53.262;10.408;2023-04-15T05:00:43;34.43;;;20.60;;
11504;SDS011;5809;53.262;10.408;2023-04-15T05:03:10;36.10;;;20.23;;
11504;SDS011;5809;53.262;10.408;2023-04-15T05:05:37;34.47;;;20.03;;
11504;SDS011;5809;53.262;10.408;2023-04-15T05:08:05;36.50;;;20.70;;
11504;SDS011;5809;53.262;10.408;2023-04-15T05:10:34;40.30;;;21.13;;
11504;SDS011;5809;53.262;10.408;2023-04-15T05:13:01;47.53;;;23.30;;
11504;SDS011;5809;53.262;10.408;2023-04-15T05:15:28;47.63;;;23.40;;
11504;SDS011;5809;53.262;10.408;2023-04-15T05:17:55;42.80;;;23.23;;
11504;SDS011;5809;53.262;10.408;2023-04-15T05:20:22;45.63;;;22.50;;
11504;SDS011;5809;53.262;10.408;2023-04-15T05:22:49;40.87;;;22.27;;
11504;SDS011;5809;53.262;10.408;2023-04-15T05:25:16;45.00;;;22.67;;
11504;SDS011;5809;53.262;10.408;2023-04-15T05:27:44;49.83;;;24.10;;
11504;SDS011;5809;53.262;10.408;2023-04-15T05:30:11;50.87;;;23.67;;
11504;SDS011;5809;53.262;10.408;2023-04-15T05:32:39;47.07;;;23.03;;
11504;SDS011;5809;53.262;10.408;2023-04-15T05:35:06;43.43;;;22.87;;
11504;SDS011;5809;53.262;10.408;2023-04-15T05:37:33;43.20;;;22.00;;
11504;SDS011;5809;53.262;10.408;2023-04-15T05:40:00;44.30;;;22.87;;
11504;SDS011;5809;53.262;10.408;2023-04-15T05:42:28;41.90;;;22.53;;
11504;SDS011;5809;53.262;10.408;2023-04-15T05:44:56;41.53;;;22.20;;
11504;SDS011;5809;53.262;10.408;2023-04-15T05:47:23;52.17;;;24.03;;
11504;SDS011;5809;53.262;10.408;2023-04-15T05:49:50;46.87;;;23.00;;
11504;SDS011;5809;53.262;10.408;2023-04-15T05:52:17;48.17;;;21.97;;
11504;SDS011;5809;53.262;10.408;2023-04-15T05:54:44;51.13;;;22.63;;
11504;SDS011;5809;53.262;10.408;2023-04-15T05:57:11;53.00;;;24.47;;
11504;SDS011;5809;53.262;10.408;2023-04-15T05:59:38;51.47;;;23.73;;
11504;SDS011;5809;53.262;10.408;2023-04-15T06:02:07;50.47;;;23.70;;
11504;SDS011;5809;53.262;10.408;2023-04-15T06:04:35;56.73;;;25.83;;
11504;SDS011;5809;53.262;10.408;2023-04-15T06:07:03;57.03;;;25.10;;
11504;SDS011;5809;53.262;10.408;2023-04-15T06:09:30;59.10;;;25.53;;
11504;SDS011;5809;53.262;10.408;2023-04-15T06:11:57;59.10;;;26.13;;
11504;SDS011;5809;53.262;10.408;2023-04-15T06:14:25;62.73;;;27.50;;
11504;SDS011;5809;53.262;10.408;2023-04-15T06:16:52;65.30;;;29.13;;
11504;SDS011;5809;53.262;10.408;2023-04-15T06:19:21;70.80;;;29.20;;
11504;SDS011;5809;53.262;10.408;2023-04-15T06:21:48;68.17;;;30.23;;
11504;SDS011;5809;53.262;10.408;2023-04-15T06:24:16;69.90;;;32.03;;
11504;SDS011;5809;53.262;10.408;2023-04-15T06:26:43;64.33;;;31.77;;
11504;SDS011;5809;53.262;10.408;2023-04-15T06:29:10;62.53;;;32.20;;
11504;SDS011;5809;53.262;10.408;2023-04-15T06:31:37;60.43;;;33.60;;
11504;SDS011;5809;53.262;10.408;2023-04-15T06:34:04;66.07;;;35.73;;
11504;SDS011;5809;53.262;10.408;2023-04-15T06:36:32;61.70;;;35.23;;
11504;SDS011;5809;53.262;10.408;2023-04-15T06:38:59;66.53;;;36.30;;
11504;SDS011;5809;53.262;10.408;2023-04-15T06:41:26;70.73;;;37.20;;
11504;SDS011;5809;53.262;10.408;2023-04-15T06:43:54;67.83;;;37.73;;
11504;SDS011;5809;53.262;10.408;2023-04-15T06:46:20;72.50;;;37.47;;
11504;SDS011;5809;53.262;10.408;2023-04-15T06:48:48;70.67;;;38.67;;
11504;SDS011;5809;53.262;10.408;2023-04-15T06:51:16;71.33;;;39.83;;
11504;SDS011;5809;53.262;10.408;2023-04-15T06:53:44;70.67;;;39.53;;
11504;SDS011;5809;53.262;10.408;2023-04-15T06:56:11;80.00;;;41.80;;
11504;SDS011;5809;53.262;10.408;2023-04-15T06:58:38;73.77;;;40.57;;
11504;SDS011;5809;53.262;10.408;2023-04-15T07:01:05;74.07;;;41.27;;
11504;SDS011;5809;53.262;10.408;2023-04-15T07:03:33;73.40;;;40.73;;
11504;SDS011;5809;53.262;10.408;2023-04-15T07:06:00;71.90;;;40.10;;
11504;SDS011;5809;53.262;10.408;2023-04-15T07:08:31;69.63;;;39.33;;
11504;SDS011;5809;53.262;10.408;2023-04-15T07:11:00;67.53;;;39.60;;
11504;SDS011;5809;53.262;10.408;2023-04-15T07:13:29;70.83;;;40.53;;
11504;SDS011;5809;53.262;10.408;2023-04-15T07:15:57;75.47;;;42.33;;
11504;SDS011;5809;53.262;10.408;2023-04-15T07:18:24;76.53;;;41.80;;
11504;SDS011;5809;53.262;10.408;2023-04-15T07:20:51;70.47;;;40.67;;
11504;SDS011;5809;53.262;10.408;2023-04-15T07:23:18;69.80;;;39.63;;
11504;SDS011;5809;53.262;10.408;2023-04-15T07:25:45;70.83;;;40.13;;
11504;SDS011;5809;53.262;10.408;2023-04-15T07:28:13;69.53;;;39.37;;
11504;SDS011;5809;53.262;10.408;2023-04-15T07:30:40;79.10;;;41.97;;
11504;SDS011;5809;53.262;10.408;2023-04-15T07:33:07;72.87;;;40.47;;
11504;SDS011;5809;53.262;10.408;2023-04-15T07:35:34;70.73;;;40.10;;
11504;SDS011;5809;53.262;10.408;2023-04-15T07:38:02;68.60;;;39.53;;
11504;SDS011;5809;53.262;10.408;2023-04-15T07:40:29;69.83;;;39.43;;
11504;SDS011;5809;53.262;10.408;2023-04-15T07:42:56;69.50;;;39.07;;
11504;SDS011;5809;53.262;10.408;2023-04-15T07:45:24;71.20;;;39.70;;
11504;SDS011;5809;53.262;10.408;2023-04-15T07:47:51;73.40;;;39.53;;
11504;SDS011;5809;53.262;10.408;2023-04-15T07:50:20;73.60;;;41.30;;
11504;SDS011;5809;53.262;10.408;2023-04-15T07:52:47;81.60;;;41.37;;
11504;SDS011;5809;53.262;10.408;2023-04-15T07:55:15;70.23;;;41.10;;
11504;SDS011;5809;53.262;10.408;2023-04-15T07:57:44;74.27;;;41.53;;
11504;SDS011;5809;53.262;10.408;2023-04-15T08:00:11;72.67;;;40.13;;
11504;SDS011;5809;53.262;10.408;2023-04-15T08:02:41;70.60;;;41.47;;
11504;SDS011;5809;53.262;10.408;2023-04-15T08:05:08;72.37;;;40.13;;
11504;SDS011;5809;53.262;10.408;2023-04-15T08:07:36;71.83;;;39.73;;
11504;SDS011;5809;53.262;10.408;2023-04-15T08:10:03;70.93;;;40.57;;
11504;SDS011;5809;53.262;10.408;2023-04-15T08:12:31;68.73;;;40.60;;
11504;SDS011;5809;53.262;10.408;2023-04-15T08:14:58;67.07;;;40.63;;
11504;SDS011;5809;53.262;10.408;2023-04-15T08:17:26;68.50;;;38.93;;
11504;SDS011;5809;53.262;10.408;2023-04-15T08:19:54;68.43;;;41.27;;
11504;SDS011;5809;53.262;10.408;2023-04-15T08:22:21;69.70;;;39.73;;
11504;SDS011;5809;53.262;10.408;2023-04-15T08:24:48;74.90;;;40.47;;
11504;SDS011;5809;53.262;10.408;2023-04-15T08:27:15;69.47;;;39.17;;
11504;SDS011;5809;53.262;10.408;2023-04-15T08:29:42;71.27;;;40.33;;
11504;SDS011;5809;53.262;10.408;2023-04-15T08:32:09;71.17;;;40.67;;
11504;SDS011;5809;53.262;10.408;2023-04-15T08:34:36;69.37;;;39.40;;
11504;SDS011;5809;53.262;10.408;2023-04-15T08:37:04;60.73;;;37.50;;
11504;SDS011;5809;53.262;10.408;2023-04-15T08:39:32;62.37;;;38.37;;
11504;SDS011;5809;53.262;10.408;2023-04-15T08:41:59;62.47;;;38.57;;
11504;SDS011;5809;53.262;10.408;2023-04-15T08:44:28;63.77;;;39.00;;
11504;SDS011;5809;53.262;10.408;2023-04-15T08:46:59;61.87;;;38.63;;
11504;SDS011;5809;53.262;10.408;2023-04-15T08:49:26;67.17;;;40.63;;
11504;SDS011;5809;53.262;10.408;2023-04-15T08:51:55;65.35;;;39.33;;
11504;SDS011;5809;53.262;10.408;2023-04-15T08:54:26;68.43;;;38.63;;
11504;SDS011;5809;53.262;10.408;2023-04-15T08:56:53;61.07;;;36.83;;
11504;SDS011;5809;53.262;10.408;2023-04-15T08:59:20;65.43;;;38.13;;
11504;SDS011;5809;53.262;10.408;2023-04-15T09:01:47;61.00;;;38.07;;
11504;SDS011;5809;53.262;10.408;2023-04-15T09:04:15;63.15;;;37.75;;
11504;SDS011;5809;53.262;10.408;2023-04-15T09:06:43;59.70;;;37.30;;
11504;SDS011;5809;53.262;10.408;2023-04-15T09:09:11;58.40;;;36.65;;
11504;SDS011;5809;53.262;10.408;2023-04-15T09:11:40;61.20;;;35.63;;
11504;SDS011;5809;53.262;10.408;2023-04-15T09:14:07;56.72;;;36.13;;
11504;SDS011;5809;53.262;10.408;2023-04-15T09:19:21;58.20;;;35.47;;
11504;SDS011;5809;53.262;10.408;2023-04-15T09:21:49;56.83;;;35.15;;
11504;SDS011;5809;53.262;10.408;2023-04-15T09:24:17;56.95;;;35.78;;
11504;SDS011;5809;53.262;10.408;2023-04-15T09:26:45;52.53;;;33.42;;
11504;SDS011;5809;53.262;10.408;2023-04-15T09:29:12;53.42;;;34.08;;
11504;SDS011;5809;53.262;10.408;2023-04-15T09:31:40;53.13;;;36.03;;
11504;SDS011;5809;53.262;10.408;2023-04-15T09:34:07;51.95;;;33.55;;
11504;SDS011;5809;53.262;10.408;2023-04-15T09:36:39;51.13;;;33.60;;
11504;SDS011;5809;53.262;10.408;2023-04-15T09:39:18;48.75;;;32.70;;
11504;SDS011;5809;53.262;10.408;2023-04-15T09:41:46;49.97;;;33.97;;
11504;SDS011;5809;53.262;10.408;2023-04-15T09:44:22;50.55;;;35.28;;
11504;SDS011;5809;53.262;10.408;2023-04-15T09:46:49;49.17;;;34.13;;
11504;SDS011;5809;53.262;10.408;2023-04-15T09:49:16;52.92;;;32.75;;
11504;SDS011;5809;53.262;10.408;2023-04-15T09:51:43;48.47;;;31.20;;
11504;SDS011;5809;53.262;10.408;2023-04-15T09:54:11;48.35;;;32.47;;
11504;SDS011;5809;53.262;10.408;2023-04-15T09:56:38;52.90;;;33.88;;
11504;SDS011;5809;53.262;10.408;2023-04-15T09:59:07;48.03;;;33.72;;
11504;SDS011;5809;53.262;10.408;2023-04-15T10:01:34;42.90;;;30.40;;
11504;SDS011;5809;53.262;10.408;2023-04-15T10:04:02;42.85;;;29.80;;
11504;SDS011;5809;53.262;10.408;2023-04-15T10:06:30;40.70;;;29.13;;
11504;SDS011;5809;53.262;10.408;2023-04-15T10:08:57;38.08;;;29.08;;
11504;SDS011;5809;53.262;10.408;2023-04-15T10:11:26;38.80;;;28.35;;
11504;SDS011;5809;53.262;10.408;2023-04-15T10:13:55;38.55;;;27.73;;
11504;SDS011;5809;53.262;10.408;2023-04-15T10:16:24;38.65;;;27.17;;
11504;SDS011;5809;53.262;10.408;2023-04-15T10:18:53;33.53;;;25.77;;
11504;SDS011;5809;53.262;10.408;2023-04-15T10:21:21;38.15;;;27.58;;
11504;SDS011;5809;53.262;10.408;2023-04-15T10:23:49;34.72;;;26.65;;
11504;SDS011;5809;53.262;10.408;2023-04-15T10:26:16;34.00;;;26.60;;
11504;SDS011;5809;53.262;10.408;2023-04-15T10:28:44;33.25;;;25.25;;
11504;SDS011;5809;53.262;10.408;2023-04-15T10:31:13;38.03;;;24.65;;
11504;SDS011;5809;53.262;10.408;2023-04-15T10:33:42;34.30;;;25.20;;
11504;SDS011;5809;53.262;10.408;2023-04-15T10:36:09;31.55;;;25.00;;
11504;SDS011;5809;53.262;10.408;2023-04-15T10:38:37;33.90;;;25.90;;
11504;SDS011;5809;53.262;10.408;2023-04-15T10:41:12;36.83;;;26.40;;
11504;SDS011;5809;53.262;10.408;2023-04-15T10:43:44;31.40;;;24.30;;
11504;SDS011;5809;53.262;10.408;2023-04-15T10:46:13;30.15;;;23.63;;
11504;SDS011;5809;53.262;10.408;2023-04-15T10:48:49;33.17;;;24.23;;
11504;SDS011;5809;53.262;10.408;2023-04-15T10:51:25;31.67;;;24.58;;
11504;SDS011;5809;53.262;10.408;2023-04-15T10:53:55;30.23;;;22.70;;
11504;SDS011;5809;53.262;10.408;2023-04-15T10:56:23;29.02;;;20.77;;
11504;SDS011;5809;53.262;10.408;2023-04-15T10:58:50;25.42;;;20.10;;
11504;SDS011;5809;53.262;10.408;2023-04-15T11:01:18;25.52;;;18.55;;
11504;SDS011;5809;53.262;10.408;2023-04-15T11:03:48;22.55;;;19.33;;
11504;SDS011;5809;53.262;10.408;2023-04-15T11:06:16;19.88;;;17.33;;
11504;SDS011;5809;53.262;10.408;2023-04-15T11:08:52;20.13;;;17.13;;
11504;SDS011;5809;53.262;10.408;2023-04-15T11:14:31;20.88;;;18.52;;
11504;SDS011;5809;53.262;10.408;2023-04-15T11:16:59;23.60;;;18.33;;
11504;SDS011;5809;53.262;10.408;2023-04-15T11:19:35;28.17;;;24.95;;
11504;SDS011;5809;53.262;10.408;2023-04-15T11:22:06;20.77;;;18.63;;
11504;SDS011;5809;53.262;10.408;2023-04-15T11:24:33;22.20;;;18.95;;
11504;SDS011;5809;53.262;10.408;2023-04-15T11:27:01;20.92;;;18.73;;
11504;SDS011;5809;53.262;10.408;2023-04-15T11:29:28;22.60;;;18.92;;
11504;SDS011;5809;53.262;10.408;2023-04-15T11:32:03;21.88;;;18.73;;
11504;SDS011;5809;53.262;10.408;2023-04-15T11:34:31;23.67;;;19.17;;
11504;SDS011;5809;53.262;10.408;2023-04-15T11:37:01;25.48;;;20.25;;
11504;SDS011;5809;53.262;10.408;2023-04-15T11:39:29;22.20;;;19.38;;
11504;SDS011;5809;53.262;10.408;2023-04-15T11:41:57;24.20;;;19.75;;
11504;SDS011;5809;53.262;10.408;2023-04-15T11:44:23;23.27;;;19.05;;
11504;SDS011;5809;53.262;10.408;2023-04-15T11:46:50;25.10;;;19.02;;
11504;SDS011;5809;53.262;10.408;2023-04-15T11:49:27;22.98;;;19.08;;
11504;SDS011;5809;53.262;10.408;2023-04-15T11:51:55;21.35;;;18.63;;
11504;SDS011;5809;53.262;10.408;2023-04-15T11:54:23;26.25;;;19.48;;
11504;SDS011;5809;53.262;10.408;2023-04-15T11:56:50;24.38;;;19.80;;
11504;SDS011;5809;53.262;10.408;2023-04-15T11:59:18;22.05;;;19.70;;
11504;SDS011;5809;53.262;10.408;2023-04-15T12:01:45;21.90;;;18.05;;
11504;SDS011;5809;53.262;10.408;2023-04-15T12:04:13;21.45;;;18.52;;
11504;SDS011;5809;53.262;10.408;2023-04-15T12:06:41;21.52;;;19.13;;
11504;SDS011;5809;53.262;10.408;2023-04-15T12:09:08;23.20;;;18.83;;
11504;SDS011;5809;53.262;10.408;2023-04-15T12:11:39;22.23;;;18.95;;
11504;SDS011;5809;53.262;10.408;2023-04-15T12:14:09;22.77;;;19.25;;
11504;SDS011;5809;53.262;10.408;2023-04-15T12:16:48;21.85;;;19.23;;
11504;SDS011;5809;53.262;10.408;2023-04-15T12:19:21;23.70;;;18.88;;
11504;SDS011;5809;53.262;10.408;2023-04-15T12:21:49;23.45;;;19.08;;
11504;SDS011;5809;53.262;10.408;2023-04-15T12:24:18;22.60;;;19.40;;
11504;SDS011;5809;53.262;10.408;2023-04-15T12:26:49;23.65;;;19.35;;
11504;SDS011;5809;53.262;10.408;2023-04-15T12:29:17;21.67;;;17.77;;
11504;SDS011;5809;53.262;10.408;2023-04-15T12:31:45;21.08;;;17.80;;
11504;SDS011;5809;53.262;10.408;2023-04-15T12:34:14;20.25;;;17.30;;
11504;SDS011;5809;53.262;10.408;2023-04-15T12:36:41;19.85;;;16.95;;
11504;SDS011;5809;53.262;10.408;2023-04-15T12:39:08;20.33;;;16.80;;
11504;SDS011;5809;53.262;10.408;2023-04-15T12:41:36;17.83;;;15.93;;
11504;SDS011;5809;53.262;10.408;2023-04-15T12:44:04;20.02;;;15.23;;
11504;SDS011;5809;53.262;10.408;2023-04-15T12:46:31;18.48;;;16.48;;
11504;SDS011;5809;53.262;10.408;2023-04-15T12:48:58;18.67;;;16.33;;
11504;SDS011;5809;53.262;10.408;2023-04-15T12:51:25;17.23;;;15.38;;
11504;SDS011;5809;53.262;10.408;2023-04-15T12:53:52;17.30;;;15.02;;
11504;SDS011;5809;53.262;10.408;2023-04-15T12:56:19;18.25;;;16.23;;
11504;SDS011;5809;53.262;10.408;2023-04-15T12:58:46;16.77;;;14.98;;
11504;SDS011;5809;53.262;10.408;2023-04-15T13:01:14;19.27;;;16.02;;
11504;SDS011;5809;53.262;10.408;2023-04-15T13:03:41;18.25;;;15.05;;
11504;SDS011;5809;53.262;10.408;2023-04-15T13:06:08;16.27;;;14.52;;
11504;SDS011;5809;53.262;10.408;2023-04-15T13:08:35;20.27;;;14.20;;
11504;SDS011;5809;53.262;10.408;2023-04-15T13:11:02;16.77;;;14.00;;
11504;SDS011;5809;53.262;10.408;2023-04-15T13:13:29;14.93;;;13.43;;
11504;SDS011;5809;53.262;10.408;2023-04-15T13:15:57;17.83;;;14.05;;
11504;SDS011;5809;53.262;10.408;2023-04-15T13:18:25;14.07;;;12.60;;
11504;SDS011;5809;53.262;10.408;2023-04-15T13:20:52;17.02;;;13.43;;
11504;SDS011;5809;53.262;10.408;2023-04-15T13:23:20;14.48;;;13.00;;
11504;SDS011;5809;53.262;10.408;2023-04-15T13:25:47;15.40;;;13.00;;
11504;SDS011;5809;53.262;10.408;2023-04-15T13:28:14;15.10;;;13.38;;
11504;SDS011;5809;53.262;10.408;2023-04-15T13:30:44;15.80;;;14.13;;
11504;SDS011;5809;53.262;10.408;2023-04-15T13:33:15;15.60;;;14.00;;
11504;SDS011;5809;53.262;10.408;2023-04-15T13:35:44;16.73;;;14.05;;
11504;SDS011;5809;53.262;10.408;2023-04-15T13:38:11;16.55;;;14.25;;
11504;SDS011;5809;53.262;10.408;2023-04-15T13:40:38;17.70;;;14.23;;
11504;SDS011;5809;53.262;10.408;2023-04-15T13:43:05;14.65;;;13.15;;
11504;SDS011;5809;53.262;10.408;2023-04-15T13:45:31;15.75;;;13.70;;
11504;SDS011;5809;53.262;10.408;2023-04-15T13:47:58;18.58;;;14.32;;
11504;SDS011;5809;53.262;10.408;2023-04-15T13:50:26;15.20;;;13.60;;
11504;SDS011;5809;53.262;10.408;2023-04-15T13:52:54;16.48;;;13.85;;
11504;SDS011;5809;53.262;10.408;2023-04-15T13:55:22;15.32;;;13.18;;
11504;SDS011;5809;53.262;10.408;2023-04-15T13:57:49;16.35;;;13.18;;
11504;SDS011;5809;53.262;10.408;2023-04-15T14:00:17;13.75;;;12.32;;
11504;SDS011;5809;53.262;10.408;2023-04-15T14:02:43;16.08;;;13.52;;
11504;SDS011;5809;53.262;10.408;2023-04-15T14:05:11;15.32;;;11.98;;
11504;SDS011;5809;53.262;10.408;2023-04-15T14:07:37;15.57;;;13.13;;
11504;SDS011;5809;53.262;10.408;2023-04-15T14:10:06;14.90;;;11.88;;
11504;SDS011;5809;53.262;10.408;2023-04-15T14:12:34;15.55;;;12.73;;
11504;SDS011;5809;53.262;10.408;2023-04-15T14:15:00;14.50;;;12.15;;
11504;SDS011;5809;53.262;10.408;2023-04-15T14:17:28;13.70;;;12.30;;
11504;SDS011;5809;53.262;10.408;2023-04-15T14:19:55;15.30;;;12.52;;
11504;SDS011;5809;53.262;10.408;2023-04-15T14:22:22;13.02;;;11.30;;
11504;SDS011;5809;53.262;10.408;2023-04-15T14:24:48;13.00;;;11.60;;
11504;SDS011;5809;53.262;10.408;2023-04-15T14:27:19;12.00;;;10.65;;
11504;SDS011;5809;53.262;10.408;2023-04-15T14:29:45;15.77;;;10.70;;
11504;SDS011;5809;53.262;10.408;2023-04-15T14:32:12;12.57;;;11.23;;
11504;SDS011;5809;53.262;10.408;2023-04-15T14:34:39;11.88;;;10.45;;